Aviation Digital Data Service (ADDS)

Output produced by METARs form (1645 UTC 20 January 2019)
found at http://www.aviationweather.gov/metar/data/
 
LKCV 201600Z 33003KT 9999 BKN041 M01/M05 Q1017 NOSIG RMK BLU BLU
TAF LKCV 201100Z 2012/2112 VRB02KT 9999 BKN030 
     BECMG 2018/2020 CAVOK 
     TEMPO 2102/2108 4000 BR
       
LKKV 201630Z 08007KT 040V100 9999 OVC015 M05/M07 Q1015 R29///////
TAF LKKV 201100Z 2012/2118 11008KT 9999 OVC012 
     TEMPO 2012/2016 5000 BR BKN007 
     TEMPO 2016/2021 SCT017 
     BECMG 2022/2100 5000 BR SCT003 
     BECMG 2100/2102 1200 BR BKN003 
     TEMPO 2102/2109 0500 FZFG VV002 
     PROB30 
     TEMPO 2103/2108 0200 FZFG VV001 
     BECMG 2109/2111 9999 SCT022 
     BECMG 2116/2118 BKN025
       
LKKB 201600Z VRB02KT 9000 OVC032 M02/M05 Q1017 NOSIG
TAF LKKB 201100Z 2012/2112 03006KT 9999 BKN030 
     BECMG 2020/2022 VRB02KT CAVOK 
     BECMG 2104/2106 5000 BR 
     BECMG 2110/2112 CAVOK
       
LKLN 201600Z AUTO 03003KT 310V080 9999 OVC023 M02/M06 Q1017
LKMT 201630Z 36003KT 3000 BR NSC M03/M06 Q1017 R04/31//95 NOSIG
TAF COR LKMT 201100Z 2012/2118 05004KT 2500 BR NSC 
     TEMPO 2012/2016 5000 BR BKN017 
     BECMG 2102/2104 0500 FZFG BKN004 
     TEMPO 2104/2108 0200 FZFG VV001 
     BECMG 2108/2110 6000 BKN012 
     BECMG 2113/2115 CAVOK 
     BECMG 2117/2118 VRB02KT
       
LKNA 201600Z 30004KT 9999 BKN046 M02/M06 Q1015 NOSIG RMK BLU BLU
TAF LKNA 201100Z 2012/2112 10005KT 9999 BKN025 
     BECMG 2014/2016 VRB02KT SCT025 
     BECMG 2018/2020 CAVOK 
     PROB30 2021/2106 0800 FZFG BKN002
       
LKPD 201600Z 23002KT CAVOK M02/M06 Q1017 NOSIG RMK BLU BLU
TAF LKPD 201100Z 2012/2112 VRB02KT CAVOK 
     TEMPO 2012/2014 BKN035 
     PROB40 
     TEMPO 2102/2106 4000 BR
       
LKPR 201630Z 33004KT 9000 OVC029 M03/M05 Q1017 NOSIG
TAF LKPR 201100Z 2012/2118 34004KT 8000 OVC025 
     BECMG 2018/2021 SCT020 
     BECMG 2100/2102 CAVOK 
     BECMG 2104/2106 3000 BR BKN008 
     TEMPO 2106/2109 1500 BR BKN004 
     PROB30 
     TEMPO 2106/2109 0700 FZFG VV002 
     BECMG 2109/2111 05004KT CAVOK
       
LKTB 201630Z VRB02KT CAVOK M00/M05 Q1017 NOSIG
TAF LKTB 201100Z 2012/2118 08005KT 9999 BKN035 
     BECMG 2015/2018 VRB02KT CAVOK 
     TEMPO 2022/2107 4000 BR NSC 
     BECMG 2111/2113 08006KT